createdAt,value
2023-02-26T00:01:41.977Z,86.76
2023-02-26T00:04:11.308Z,86.68
2023-02-26T00:06:53.035Z,86.65
2023-02-26T00:09:25.134Z,86.52
2023-02-26T00:11:53.763Z,86.01
2023-02-26T00:14:22.368Z,86.02
2023-02-26T00:17:32.095Z,86.01
2023-02-26T00:20:00.936Z,86.10
2023-02-26T00:22:29.143Z,86.21
2023-02-26T00:24:57.125Z,86.19
2023-02-26T00:27:25.156Z,86.10
2023-02-26T00:29:53.500Z,86.14
2023-02-26T00:32:22.394Z,86.22
2023-02-26T00:34:50.712Z,86.21
2023-02-26T00:37:48.119Z,86.22
2023-02-26T00:40:25.395Z,86.22
2023-02-26T00:42:53.555Z,86.12
2023-02-26T00:45:21.702Z,86.24
2023-02-26T00:47:56.809Z,86.27
2023-02-26T00:50:26.750Z,86.25
2023-02-26T00:52:57.979Z,86.31
2023-02-26T00:55:27.306Z,86.29
2023-02-26T00:57:57.207Z,86.32
2023-02-26T01:00:25.394Z,86.41
2023-02-26T01:02:53.532Z,86.47
2023-02-26T01:05:22.342Z,86.55
2023-02-26T01:08:34.511Z,86.59
2023-02-26T01:11:02.615Z,86.47
2023-02-26T01:13:30.833Z,86.11
2023-02-26T01:16:05.707Z,85.95
2023-02-26T01:18:42.393Z,85.14
2023-02-26T01:21:17.666Z,84.60
2023-02-26T01:23:49.396Z,84.60
2023-02-26T01:26:23.699Z,84.41
2023-02-26T01:28:53.022Z,84.55
2023-02-26T01:31:27.185Z,84.64
2023-02-26T01:34:09.763Z,84.65
2023-02-26T01:36:44.466Z,84.72
2023-02-26T01:39:49.997Z,84.85
2023-02-26T01:42:27.403Z,84.94
2023-02-26T01:45:09.781Z,85.00
2023-02-26T01:47:54.347Z,85.15
2023-02-26T01:50:32.033Z,85.00
2023-02-26T01:53:18.654Z,84.84
2023-02-26T01:55:51.900Z,84.55
2023-02-26T01:58:21.528Z,84.26
2023-02-26T02:00:49.604Z,84.42
2023-02-26T02:03:18.865Z,84.20
2023-02-26T02:06:01.345Z,83.92
2023-02-26T02:08:29.507Z,83.70
2023-02-26T02:10:57.626Z,83.80
2023-02-26T02:13:31.368Z,83.66
2023-02-26T02:16:08.680Z,83.37
2023-02-26T02:18:54.475Z,83.41
2023-02-26T02:21:36.633Z,83.45
2023-02-26T02:24:16.795Z,82.72
2023-02-26T02:26:50.913Z,82.28
2023-02-26T02:29:58.069Z,81.69
2023-02-26T02:32:50.024Z,81.44
2023-02-26T02:35:20.764Z,81.22
2023-02-26T02:37:58.066Z,81.17
2023-02-26T02:40:31.252Z,80.88
2023-02-26T02:43:07.815Z,80.93
2023-02-26T02:45:59.717Z,80.89
2023-02-26T02:48:33.509Z,81.00
2023-02-26T02:51:11.501Z,81.14
2023-02-26T02:53:42.712Z,80.84
2023-02-26T02:56:17.798Z,80.72
2023-02-26T02:58:53.388Z,80.90
2023-02-26T03:01:25.565Z,80.97
2023-02-26T03:04:15.739Z,81.18
2023-02-26T03:06:46.706Z,81.23
2023-02-26T03:09:14.793Z,81.44
2023-02-26T03:11:43.195Z,81.43
2023-02-26T03:14:14.694Z,81.59
2023-02-26T03:17:02.226Z,81.81
2023-02-26T03:19:36.348Z,81.96
2023-02-26T03:22:48.050Z,82.01
2023-02-26T03:25:30.865Z,82.07
2023-02-26T03:28:30.989Z,82.10
2023-02-26T03:31:07.787Z,82.15
2023-02-26T03:33:50.467Z,82.19
2023-02-26T03:36:24.745Z,82.22
2023-02-26T03:39:41.206Z,82.31
2023-02-26T03:42:38.194Z,82.33
2023-02-26T03:45:18.240Z,82.30
2023-02-26T03:47:53.842Z,82.23
2023-02-26T03:50:31.411Z,82.24
2023-02-26T03:53:17.735Z,82.25
2023-02-26T03:56:21.807Z,82.30
2023-02-26T03:59:09.088Z,82.31
2023-02-26T04:05:35.139Z,82.60
2023-02-26T04:08:04.053Z,82.68
2023-02-26T04:11:06.451Z,82.80
2023-02-26T04:13:34.513Z,82.96
2023-02-26T04:16:03.344Z,83.06
2023-02-26T04:18:31.966Z,83.16
2023-02-26T04:20:59.964Z,83.27
2023-02-26T04:23:32.121Z,83.36
2023-02-26T04:25:59.960Z,83.39
2023-02-26T04:28:30.178Z,83.41
2023-02-26T04:34:37.408Z,83.24
2023-02-26T04:37:06.876Z,83.33
2023-02-26T04:39:34.890Z,83.38
2023-02-26T04:42:04.500Z,83.40
2023-02-26T04:44:33.545Z,83.44
2023-02-26T04:47:02.228Z,83.47
2023-02-26T04:49:30.496Z,83.47
2023-02-26T04:51:59.296Z,83.39
2023-02-26T04:54:27.363Z,83.30
2023-02-26T04:56:55.243Z,83.28
2023-02-26T04:59:23.243Z,83.31
2023-02-26T05:01:52.130Z,83.42
2023-02-26T05:04:20.336Z,83.41
2023-02-26T05:06:51.657Z,83.42
2023-02-26T05:09:22.068Z,83.49
2023-02-26T05:11:50.920Z,83.60
2023-02-26T05:14:18.963Z,83.55
2023-02-26T05:16:48.691Z,83.53
2023-02-26T05:19:16.923Z,83.32
2023-02-26T05:21:47.208Z,83.04
2023-02-26T05:24:16.339Z,82.89
2023-02-26T05:26:44.600Z,82.44
2023-02-26T05:29:12.865Z,82.11
2023-02-26T05:31:41.008Z,82.07
2023-02-26T05:34:09.803Z,81.71
2023-02-26T05:36:37.824Z,81.76
2023-02-26T05:39:05.652Z,81.83
2023-02-26T05:41:33.532Z,81.66
2023-02-26T05:44:02.645Z,81.28
2023-02-26T05:46:30.756Z,80.83
2023-02-26T05:48:59.040Z,81.00
2023-02-26T05:51:28.748Z,81.29
2023-02-26T05:53:57.891Z,81.23
2023-02-26T05:56:26.154Z,79.86
2023-02-26T05:58:54.401Z,78.96
2023-02-26T06:01:22.582Z,78.70
2023-02-26T06:03:50.508Z,78.69
2023-02-26T06:06:18.615Z,78.57
2023-02-26T06:08:46.542Z,78.67
2023-02-26T06:11:14.680Z,78.82
2023-02-26T06:13:42.687Z,78.98
2023-02-26T06:16:10.726Z,79.09
2023-02-26T06:18:38.826Z,78.93
2023-02-26T06:21:07.074Z,78.19
2023-02-26T06:23:35.085Z,78.09
2023-02-26T06:26:03.301Z,78.52
2023-02-26T06:28:31.461Z,78.72
2023-02-26T06:30:59.755Z,78.26
2023-02-26T06:33:28.260Z,78.01
2023-02-26T06:35:59.366Z,77.88
2023-02-26T06:38:28.675Z,77.76
2023-02-26T06:40:56.719Z,77.21
2023-02-26T06:43:24.693Z,76.97
2023-02-26T06:45:52.732Z,76.90
2023-02-26T06:48:20.803Z,75.76
2023-02-26T06:50:48.757Z,75.33
2023-02-26T06:53:16.919Z,75.54
2023-02-26T06:55:45.570Z,75.70
2023-02-26T06:58:14.173Z,75.46
2023-02-26T07:00:42.169Z,74.64
2023-02-26T07:03:15.602Z,75.15
2023-02-26T07:05:45.441Z,74.67
2023-02-26T07:08:14.078Z,75.09
2023-02-26T07:10:45.210Z,73.28
2023-02-26T07:13:13.487Z,73.26
2023-02-26T07:15:41.293Z,73.74
2023-02-26T07:18:09.217Z,74.20
2023-02-26T07:20:37.059Z,74.36
2023-02-26T07:23:05.490Z,74.67
2023-02-26T07:25:33.335Z,73.64
2023-02-26T07:28:01.164Z,73.76
2023-02-26T07:30:32.076Z,74.17
2023-02-26T07:33:00.371Z,73.89
2023-02-26T07:35:28.272Z,73.82
2023-02-26T07:37:56.515Z,73.52
2023-02-26T07:40:24.684Z,73.54
2023-02-26T07:42:52.632Z,73.69
2023-02-26T07:45:22.646Z,73.67
2023-02-26T07:47:51.755Z,73.14
2023-02-26T07:50:21.063Z,73.38
2023-02-26T07:52:48.941Z,73.61
2023-02-26T07:55:16.922Z,73.30
2023-02-26T07:57:44.806Z,73.21
2023-02-26T08:00:14.201Z,73.17
2023-02-26T08:02:42.210Z,72.32
2023-02-26T08:05:10.123Z,72.78
2023-02-26T08:07:37.963Z,72.70
2023-02-26T08:10:07.044Z,72.60
2023-02-26T08:12:35.067Z,72.12
2023-02-26T08:15:03.404Z,71.52
2023-02-26T08:17:31.364Z,72.07
2023-02-26T08:19:59.254Z,72.43
2023-02-26T08:22:27.375Z,71.87
2023-02-26T08:24:55.871Z,71.84
2023-02-26T08:27:24.108Z,72.18
2023-02-26T08:29:52.748Z,72.09
2023-02-26T08:32:25.769Z,72.02
2023-02-26T08:34:56.929Z,71.86
2023-02-26T08:37:25.081Z,72.17
2023-02-26T08:39:53.366Z,72.20
2023-02-26T08:42:21.610Z,71.69
2023-02-26T08:44:49.685Z,72.12
2023-02-26T08:47:28.200Z,72.49
2023-02-26T08:49:57.331Z,72.68
2023-02-26T08:52:25.330Z,72.11
2023-02-26T08:54:53.231Z,72.04
2023-02-26T08:57:21.398Z,72.31
2023-02-26T08:59:49.323Z,72.43
2023-02-26T09:02:17.677Z,71.30
2023-02-26T09:04:45.760Z,71.28
2023-02-26T09:07:13.934Z,71.26
2023-02-26T09:09:42.064Z,71.04
2023-02-26T09:12:10.281Z,70.74
2023-02-26T09:14:38.400Z,70.48
2023-02-26T09:17:06.866Z,70.75
2023-02-26T09:19:34.815Z,70.93
2023-02-26T09:22:04.288Z,71.03
2023-02-26T09:24:34.812Z,71.20
2023-02-26T09:27:03.731Z,71.22
2023-02-26T09:29:31.648Z,71.37
2023-02-26T09:31:59.885Z,71.62
2023-02-26T09:34:28.057Z,71.46
2023-02-26T09:36:56.053Z,71.25
2023-02-26T09:39:25.273Z,71.19
2023-02-26T09:41:57.287Z,71.31
2023-02-26T09:44:28.645Z,71.40
2023-02-26T09:47:31.380Z,71.04
2023-02-26T09:50:20.545Z,70.81
2023-02-26T09:53:05.506Z,70.69
2023-02-26T09:55:47.001Z,70.97
2023-02-26T09:58:21.794Z,71.13
2023-02-26T10:01:08.954Z,71.23
2023-02-26T10:03:46.348Z,71.44
2023-02-26T10:06:17.456Z,71.71
2023-02-26T10:09:04.142Z,72.20
2023-02-26T10:11:58.406Z,71.73
2023-02-26T10:14:34.396Z,72.20
2023-02-26T10:17:08.556Z,71.99
2023-02-26T10:19:41.931Z,72.37
2023-02-26T10:22:21.881Z,72.65
2023-02-26T10:24:57.917Z,72.74
2023-02-26T10:28:08.949Z,72.91
2023-02-26T10:30:57.306Z,72.93
2023-02-26T10:33:50.604Z,72.77
2023-02-26T10:36:43.462Z,72.72
2023-02-26T10:39:37.063Z,73.09
2023-02-26T10:42:27.855Z,73.22
2023-02-26T10:45:23.549Z,73.08
2023-02-26T10:48:04.047Z,72.58
2023-02-26T10:50:35.682Z,72.73
2023-02-26T10:53:04.271Z,72.41
2023-02-26T10:55:37.402Z,71.84
2023-02-26T10:58:20.828Z,71.84
2023-02-26T11:04:40.271Z,71.61
2023-02-26T11:07:09.775Z,72.04
2023-02-26T11:09:44.187Z,72.09
2023-02-26T11:12:14.137Z,71.38
2023-02-26T11:14:43.483Z,70.29
2023-02-26T11:17:29.621Z,70.37
2023-02-26T11:20:02.449Z,70.29
2023-02-26T11:22:34.407Z,70.34
2023-02-26T11:25:03.091Z,70.03
2023-02-26T11:27:35.703Z,70.50
2023-02-26T11:30:18.581Z,69.63
2023-02-26T11:32:52.545Z,69.20
2023-02-26T11:35:24.380Z,69.37
2023-02-26T11:37:56.072Z,69.36
2023-02-26T11:40:41.699Z,69.24
2023-02-26T11:43:15.317Z,69.28
2023-02-26T11:45:45.628Z,68.82
2023-02-26T11:48:20.458Z,68.76
2023-02-26T11:50:53.085Z,68.68
2023-02-26T11:53:29.114Z,68.61
2023-02-26T11:56:03.834Z,68.33
2023-02-26T11:58:37.586Z,68.75
2023-02-26T12:01:09.014Z,68.28
2023-02-26T12:03:42.374Z,68.89
2023-02-26T12:06:18.740Z,69.37
2023-02-26T12:08:48.062Z,69.16
2023-02-26T12:11:31.480Z,69.48
2023-02-26T12:14:07.884Z,69.87
2023-02-26T12:16:39.084Z,69.45
2023-02-26T12:19:19.939Z,69.05
2023-02-26T12:22:11.160Z,68.86
2023-02-26T12:24:48.768Z,69.53
2023-02-26T12:27:23.693Z,69.31
2023-02-26T12:30:10.812Z,69.23
2023-02-26T12:32:44.959Z,69.12
2023-02-26T12:35:28.365Z,68.53
2023-02-26T12:37:59.408Z,68.65
2023-02-26T12:41:05.204Z,68.75
2023-02-26T12:44:04.964Z,68.54
2023-02-26T12:47:18.606Z,68.90
2023-02-26T12:50:24.375Z,69.37
2023-02-26T12:52:52.542Z,69.17
2023-02-26T12:55:44.887Z,67.76
2023-02-26T12:58:39.196Z,66.60
2023-02-26T13:01:08.260Z,67.33
2023-02-26T13:03:53.991Z,65.45
2023-02-26T13:06:48.247Z,66.38
2023-02-26T13:09:31.352Z,66.84
2023-02-26T13:12:12.458Z,65.34
2023-02-26T13:15:21.976Z,65.74
2023-02-26T13:18:16.220Z,66.73
2023-02-26T13:21:22.930Z,65.60
2023-02-26T13:24:05.384Z,65.31
2023-02-26T13:26:35.047Z,65.99
2023-02-26T13:29:12.062Z,66.65
2023-02-26T13:31:58.345Z,65.69
2023-02-26T13:34:39.600Z,66.01
2023-02-26T13:37:18.863Z,65.87
2023-02-26T13:39:57.580Z,66.00
2023-02-26T13:42:47.467Z,65.79
2023-02-26T13:45:51.101Z,65.47
2023-02-26T13:48:57.316Z,65.76
2023-02-26T13:51:28.937Z,65.26
2023-02-26T13:54:04.596Z,65.54
2023-02-26T13:56:32.716Z,65.30
2023-02-26T13:59:17.235Z,65.43
2023-02-26T14:01:48.211Z,65.32
2023-02-26T14:04:19.130Z,65.17
2023-02-26T14:06:51.925Z,65.26
2023-02-26T14:09:22.952Z,64.79
2023-02-26T14:12:02.866Z,64.87
2023-02-26T14:14:46.168Z,65.02
2023-02-26T14:17:14.155Z,65.31
2023-02-26T14:19:54.187Z,65.20
2023-02-26T14:22:43.482Z,64.66
2023-02-26T14:25:28.233Z,64.83
2023-02-26T14:28:33.441Z,65.09
2023-02-26T14:31:07.450Z,65.61
2023-02-26T14:33:59.831Z,65.13
2023-02-26T14:36:36.429Z,64.74
2023-02-26T14:39:09.340Z,65.18
2023-02-26T14:41:41.468Z,64.90
2023-02-26T14:44:12.704Z,65.23
2023-02-26T14:46:41.560Z,65.01
2023-02-26T14:49:28.618Z,64.92
2023-02-26T14:52:26.625Z,65.49
2023-02-26T14:55:08.405Z,66.07
2023-02-26T14:58:21.322Z,65.68
2023-02-26T15:01:27.272Z,66.14
2023-02-26T15:04:34.621Z,66.18
2023-02-26T15:07:41.407Z,66.26
2023-02-26T15:10:16.020Z,66.00
2023-02-26T15:13:05.797Z,66.09
2023-02-26T15:16:09.566Z,66.01
2023-02-26T15:19:03.396Z,66.36
2023-02-26T15:22:01.659Z,66.47
2023-02-26T15:24:31.456Z,66.44
2023-02-26T15:27:03.030Z,66.31
2023-02-26T15:29:38.110Z,65.72
2023-02-26T15:32:17.451Z,65.64
2023-02-26T15:35:36.479Z,65.93
2023-02-26T15:38:05.371Z,66.29
2023-02-26T15:40:36.222Z,66.12
2023-02-26T15:43:08.683Z,66.33
2023-02-26T15:45:40.235Z,66.74
2023-02-26T15:48:15.227Z,66.92
2023-02-26T15:50:50.323Z,67.30
2023-02-26T15:53:38.506Z,67.71
2023-02-26T15:56:17.084Z,67.92
2023-02-26T15:59:13.970Z,68.19
2023-02-26T16:01:42.188Z,68.28
2023-02-26T16:04:17.379Z,68.34
2023-02-26T16:06:53.267Z,68.74
2023-02-26T16:09:34.848Z,69.79
2023-02-26T16:12:11.992Z,70.18
2023-02-26T16:14:47.006Z,69.86
2023-02-26T16:17:35.885Z,69.81
2023-02-26T16:20:12.461Z,70.07
2023-02-26T16:22:46.779Z,70.29
2023-02-26T16:25:25.824Z,70.66
2023-02-26T16:28:05.987Z,70.82
2023-02-26T16:30:38.755Z,71.28
2023-02-26T16:33:16.484Z,71.82
2023-02-26T16:36:06.868Z,72.05
2023-02-26T16:38:50.126Z,72.27
2023-02-26T16:41:26.959Z,72.51
2023-02-26T16:43:58.136Z,72.63
2023-02-26T16:46:46.511Z,72.81
2023-02-26T16:49:29.539Z,72.93
2023-02-26T16:51:58.414Z,73.21
2023-02-26T16:54:36.808Z,73.65
2023-02-26T16:57:13.739Z,73.85
2023-02-26T16:59:44.036Z,74.16
2023-02-26T17:02:20.786Z,74.41
2023-02-26T17:04:58.079Z,74.56
2023-02-26T17:07:31.218Z,74.60
2023-02-26T17:10:19.523Z,74.70
2023-02-26T17:12:53.420Z,74.80
2023-02-26T17:15:32.565Z,75.08
2023-02-26T17:18:00.625Z,75.37
2023-02-26T17:20:30.742Z,75.76
2023-02-26T17:23:00.420Z,76.06
2023-02-26T17:25:34.919Z,76.27
2023-02-26T17:28:04.025Z,76.46
2023-02-26T17:30:33.687Z,76.81
2023-02-26T17:33:04.982Z,77.02
2023-02-26T17:35:34.244Z,77.19
2023-02-26T17:38:02.979Z,77.38
2023-02-26T17:40:38.512Z,77.67
2023-02-26T17:43:07.809Z,77.85
2023-02-26T17:45:39.289Z,78.16
2023-02-26T17:48:08.340Z,78.43
2023-02-26T17:50:55.936Z,78.61
2023-02-26T17:53:29.727Z,78.70
2023-02-26T17:55:58.145Z,78.80
2023-02-26T17:58:32.131Z,78.86
2023-02-26T18:01:01.854Z,78.88
2023-02-26T18:03:30.028Z,78.62
2023-02-26T18:05:58.822Z,78.17
2023-02-26T18:08:28.578Z,77.64
2023-02-26T18:10:58.244Z,77.00
2023-02-26T18:13:27.051Z,76.71
2023-02-26T18:15:58.040Z,76.43
2023-02-26T18:18:26.183Z,76.12
2023-02-26T18:20:54.942Z,75.86
2023-02-26T18:23:22.901Z,75.47
2023-02-26T18:25:53.229Z,75.28
2023-02-26T18:28:26.696Z,75.16
2023-02-26T18:30:56.861Z,75.06
2023-02-26T18:33:26.029Z,74.89
2023-02-26T18:35:56.740Z,74.74
2023-02-26T18:38:27.822Z,74.62
2023-02-26T18:40:56.132Z,74.43
2023-02-26T18:43:24.215Z,74.19
2023-02-26T18:45:52.540Z,74.07
2023-02-26T18:48:21.196Z,73.83
2023-02-26T18:50:49.229Z,73.51
2023-02-26T18:53:23.146Z,73.58
2023-02-26T18:55:53.131Z,73.55
2023-02-26T18:58:22.209Z,73.45
2023-02-26T19:04:36.739Z,73.34
2023-02-26T19:07:04.747Z,73.21
2023-02-26T19:09:35.171Z,73.30
2023-02-26T19:12:03.798Z,73.19
2023-02-26T19:14:32.293Z,73.14
2023-02-26T19:17:01.546Z,73.01
2023-02-26T19:19:29.961Z,73.12
2023-02-26T19:21:58.688Z,73.08
2023-02-26T19:24:27.500Z,72.92
2023-02-26T19:26:59.377Z,72.55
2023-02-26T19:29:27.261Z,72.22
2023-02-26T19:31:55.329Z,71.91
2023-02-26T19:34:23.649Z,71.68
2023-02-26T19:36:53.390Z,71.12
2023-02-26T19:39:21.414Z,71.04
2023-02-26T19:41:50.743Z,70.35
2023-02-26T19:44:20.411Z,70.11
2023-02-26T19:46:49.614Z,70.23
2023-02-26T19:49:19.222Z,69.77
2023-02-26T19:51:47.408Z,68.83
2023-02-26T19:54:15.812Z,68.40
2023-02-26T19:56:44.959Z,67.35
2023-02-26T19:59:13.438Z,68.06
2023-02-26T20:01:42.563Z,67.65
2023-02-26T20:04:10.808Z,67.78
2023-02-26T20:06:39.048Z,67.50
2023-02-26T20:09:07.443Z,67.70
2023-02-26T20:11:36.001Z,67.93
2023-02-26T20:14:04.308Z,66.38
2023-02-26T20:16:32.622Z,66.13
2023-02-26T20:19:00.677Z,66.99
2023-02-26T20:21:29.069Z,66.46
2023-02-26T20:23:57.714Z,66.11
2023-02-26T20:26:25.967Z,66.01
2023-02-26T20:28:54.189Z,66.20
2023-02-26T20:31:22.428Z,65.90
2023-02-26T20:33:50.795Z,66.24
2023-02-26T20:36:19.992Z,66.29
2023-02-26T20:38:48.839Z,66.27
2023-02-26T20:41:16.893Z,66.37
2023-02-26T20:43:45.013Z,66.37
2023-02-26T20:46:13.366Z,66.38
2023-02-26T20:48:44.254Z,66.60
2023-02-26T20:51:12.441Z,66.75
2023-02-26T20:53:40.925Z,66.87
2023-02-26T20:56:09.125Z,66.94
2023-02-26T20:58:39.289Z,66.90
2023-02-26T21:01:07.396Z,66.94
2023-02-26T21:03:35.548Z,66.91
2023-02-26T21:06:03.892Z,67.13
2023-02-26T21:08:33.517Z,67.11
2023-02-26T21:11:01.882Z,67.50
2023-02-26T21:13:29.862Z,67.67
2023-02-26T21:15:58.165Z,67.81
2023-02-26T21:18:26.238Z,67.99
2023-02-26T21:20:54.374Z,68.29
2023-02-26T21:23:22.412Z,68.27
2023-02-26T21:25:50.868Z,68.55
2023-02-26T21:28:19.164Z,68.94
2023-02-26T21:30:47.473Z,69.26
2023-02-26T21:33:15.379Z,69.45
2023-02-26T21:35:43.601Z,69.52
2023-02-26T21:38:12.350Z,69.72
2023-02-26T21:40:40.264Z,69.89
2023-02-26T21:43:10.675Z,69.96
2023-02-26T21:45:39.486Z,70.30
2023-02-26T21:48:08.509Z,70.50
2023-02-26T21:50:36.797Z,70.63
2023-02-26T21:53:04.750Z,70.83
2023-02-26T21:55:33.535Z,71.13
2023-02-26T21:58:02.903Z,71.49
2023-02-26T22:00:30.964Z,71.85
2023-02-26T22:02:58.966Z,72.22
2023-02-26T22:05:27.358Z,72.67
2023-02-26T22:07:55.498Z,72.86
2023-02-26T22:10:23.470Z,73.21
2023-02-26T22:12:51.551Z,73.45
2023-02-26T22:15:19.979Z,73.82
2023-02-26T22:17:48.004Z,74.07
2023-02-26T22:20:16.090Z,74.21
2023-02-26T22:22:44.043Z,74.50
2023-02-26T22:25:12.955Z,74.70
2023-02-26T22:27:40.930Z,74.90
2023-02-26T22:30:09.888Z,75.07
2023-02-26T22:32:42.912Z,75.17
2023-02-26T22:35:17.395Z,75.52
2023-02-26T22:37:45.592Z,75.68
2023-02-26T22:40:14.548Z,75.81
2023-02-26T22:42:43.786Z,76.02
2023-02-26T22:45:13.559Z,76.28
2023-02-26T22:47:41.753Z,76.51
2023-02-26T22:50:10.411Z,76.59
2023-02-26T22:52:38.556Z,76.75
2023-02-26T22:55:07.113Z,76.88
2023-02-26T22:57:35.322Z,77.16
2023-02-26T23:00:11.584Z,77.20
2023-02-26T23:02:39.589Z,77.38
2023-02-26T23:05:09.417Z,77.44
2023-02-26T23:07:39.400Z,77.45
2023-02-26T23:10:09.984Z,77.53
2023-02-26T23:12:38.654Z,77.61
2023-02-26T23:15:08.065Z,77.94
2023-02-26T23:17:36.489Z,78.11
2023-02-26T23:20:06.389Z,78.16
2023-02-26T23:22:34.414Z,78.30
2023-02-26T23:25:02.785Z,78.34
2023-02-26T23:27:30.806Z,78.43
2023-02-26T23:29:58.998Z,78.55
2023-02-26T23:32:26.981Z,78.60
2023-02-26T23:34:55.077Z,78.67
2023-02-26T23:37:23.632Z,78.46
2023-02-26T23:39:51.729Z,78.31
2023-02-26T23:42:19.726Z,78.28
2023-02-26T23:44:47.784Z,78.18
2023-02-26T23:47:15.758Z,78.39
2023-02-26T23:49:43.971Z,78.45
2023-02-26T23:52:12.025Z,78.65
2023-02-26T23:54:40.092Z,78.67
2023-02-26T23:57:08.250Z,78.88
2023-02-26T23:59:36.114Z,78.96
